sensor_id;sensor_type;location;lat;lon;timestamp;pressure;altitude;pressure_sealevel;temperature;humidity
12785;BME280;6456;42.680;23.260;2022-10-03T00:01:37;94679.66;;;13.26;100.00
12785;BME280;6456;42.680;23.260;2022-10-03T00:04:15;94658.97;;;13.12;100.00
12785;BME280;6456;42.680;23.260;2022-10-03T00:06:57;94672.88;;;13.19;100.00
12785;BME280;6456;42.680;23.260;2022-10-03T00:09:40;94658.41;;;13.10;100.00
12785;BME280;6456;42.680;23.260;2022-10-03T00:12:19;94594.66;;;12.76;100.00
12785;BME280;6456;42.680;23.260;2022-10-03T00:14:52;94594.22;;;12.79;100.00
12785;BME280;6456;42.680;23.260;2022-10-03T00:17:35;94651.28;;;13.22;100.00
12785;BME280;6456;42.680;23.260;2022-10-03T00:20:28;94642.78;;;13.20;100.00
12785;BME280;6456;42.680;23.260;2022-10-03T00:23:01;94594.47;;;12.90;100.00
12785;BME280;6456;42.680;23.260;2022-10-03T00:25:39;94613.69;;;13.08;100.00
12785;BME280;6456;42.680;23.260;2022-10-03T00:28:18;94603.97;;;12.79;100.00
12785;BME280;6456;42.680;23.260;2022-10-03T00:31:01;94585.47;;;12.67;100.00
12785;BME280;6456;42.680;23.260;2022-10-03T00:33:38;94644.09;;;12.99;100.00
12785;BME280;6456;42.680;23.260;2022-10-03T00:36:15;94667.19;;;13.04;100.00
12785;BME280;6456;42.680;23.260;2022-10-03T00:42:23;94648.09;;;12.90;100.00
12785;BME280;6456;42.680;23.260;2022-10-03T00:45:28;94641.06;;;12.84;100.00
12785;BME280;6456;42.680;23.260;2022-10-03T00:48:14;94613.91;;;12.65;100.00
12785;BME280;6456;42.680;23.260;2022-10-03T00:51:08;94629.38;;;12.80;100.00
12785;BME280;6456;42.680;23.260;2022-10-03T00:54:06;94626.94;;;12.78;100.00
12785;BME280;6456;42.680;23.260;2022-10-03T00:56:58;94621.38;;;12.68;100.00
12785;BME280;6456;42.680;23.260;2022-10-03T00:59:41;94660.94;;;12.86;100.00
12785;BME280;6456;42.680;23.260;2022-10-03T01:02:25;94638.97;;;12.74;100.00
12785;BME280;6456;42.680;23.260;2022-10-03T01:05:00;94590.81;;;12.49;100.00
12785;BME280;6456;42.680;23.260;2022-10-03T01:07:50;94613.47;;;12.68;100.00
12785;BME280;6456;42.680;23.260;2022-10-03T01:10:27;94638.88;;;12.93;100.00
12785;BME280;6456;42.680;23.260;2022-10-03T01:13:18;94619.81;;;12.79;100.00
12785;BME280;6456;42.680;23.260;2022-10-03T01:15:52;94566.47;;;12.47;100.00
12785;BME280;6456;42.680;23.260;2022-10-03T01:18:33;94601.91;;;12.81;100.00
12785;BME280;6456;42.680;23.260;2022-10-03T01:21:11;94628.69;;;12.96;100.00
12785;BME280;6456;42.680;23.260;2022-10-03T01:24:15;94627.69;;;12.97;100.00
12785;BME280;6456;42.680;23.260;2022-10-03T01:26:57;94609.75;;;12.88;100.00
12785;BME280;6456;42.680;23.260;2022-10-03T01:29:34;94624.22;;;12.97;100.00
12785;BME280;6456;42.680;23.260;2022-10-03T01:32:25;94620.31;;;12.99;100.00
12785;BME280;6456;42.680;23.260;2022-10-03T01:35:05;94612.59;;;12.98;100.00
12785;BME280;6456;42.680;23.260;2022-10-03T01:37:42;94593.03;;;12.75;100.00
12785;BME280;6456;42.680;23.260;2022-10-03T01:40:18;94622.72;;;12.89;100.00
12785;BME280;6456;42.680;23.260;2022-10-03T01:42:59;94612.13;;;12.77;100.00
12785;BME280;6456;42.680;23.260;2022-10-03T01:45:35;94565.97;;;12.39;100.00
12785;BME280;6456;42.680;23.260;2022-10-03T01:48:05;94551.84;;;12.33;100.00
12785;BME280;6456;42.680;23.260;2022-10-03T01:50:36;94612.13;;;12.77;100.00
12785;BME280;6456;42.680;23.260;2022-10-03T01:53:13;94600.13;;;12.63;100.00
12785;BME280;6456;42.680;23.260;2022-10-03T01:55:51;94617.72;;;12.69;100.00
12785;BME280;6456;42.680;23.260;2022-10-03T01:58:24;94544.63;;;12.29;100.00
12785;BME280;6456;42.680;23.260;2022-10-03T02:00:59;94615.91;;;12.70;100.00
12785;BME280;6456;42.680;23.260;2022-10-03T02:03:37;94603.00;;;12.62;100.00
12785;BME280;6456;42.680;23.260;2022-10-03T02:06:19;94602.19;;;12.61;100.00
12785;BME280;6456;42.680;23.260;2022-10-03T02:08:55;94538.69;;;12.15;100.00
12785;BME280;6456;42.680;23.260;2022-10-03T02:11:30;94573.31;;;12.37;100.00
12785;BME280;6456;42.680;23.260;2022-10-03T02:14:15;94586.53;;;12.48;100.00
12785;BME280;6456;42.680;23.260;2022-10-03T02:16:54;94603.09;;;12.55;100.00
12785;BME280;6456;42.680;23.260;2022-10-03T02:19:25;94582.63;;;12.39;100.00
12785;BME280;6456;42.680;23.260;2022-10-03T02:21:56;94598.59;;;12.44;100.00
12785;BME280;6456;42.680;23.260;2022-10-03T02:24:37;94602.94;;;12.39;100.00
12785;BME280;6456;42.680;23.260;2022-10-03T02:27:29;94559.66;;;12.10;100.00
12785;BME280;6456;42.680;23.260;2022-10-03T02:30:11;94605.81;;;12.37;100.00
12785;BME280;6456;42.680;23.260;2022-10-03T02:36:19;94589.31;;;12.23;100.00
12785;BME280;6456;42.680;23.260;2022-10-03T02:39:17;94598.06;;;12.24;100.00
12785;BME280;6456;42.680;23.260;2022-10-03T02:45:27;94594.97;;;12.27;100.00
12785;BME280;6456;42.680;23.260;2022-10-03T02:48:30;94605.88;;;12.31;100.00
12785;BME280;6456;42.680;23.260;2022-10-03T02:57:57;94596.91;;;12.02;100.00
12785;BME280;6456;42.680;23.260;2022-10-03T03:00:42;94602.47;;;11.94;100.00
12785;BME280;6456;42.680;23.260;2022-10-03T03:03:46;94594.44;;;11.89;100.00
12785;BME280;6456;42.680;23.260;2022-10-03T03:06:36;94611.13;;;11.83;100.00
12785;BME280;6456;42.680;23.260;2022-10-03T03:09:41;94527.41;;;11.24;100.00
12785;BME280;6456;42.680;23.260;2022-10-03T03:12:30;94562.19;;;11.50;100.00
12785;BME280;6456;42.680;23.260;2022-10-03T03:18:18;94561.31;;;11.56;100.00
12785;BME280;6456;42.680;23.260;2022-10-03T03:21:08;94592.94;;;11.56;100.00
12785;BME280;6456;42.680;23.260;2022-10-03T03:23:54;94592.22;;;11.49;100.00
12785;BME280;6456;42.680;23.260;2022-10-03T03:26:48;94586.00;;;11.62;100.00
12785;BME280;6456;42.680;23.260;2022-10-03T03:29:27;94576.31;;;11.56;100.00
12785;BME280;6456;42.680;23.260;2022-10-03T03:32:02;94598.41;;;11.80;100.00
12785;BME280;6456;42.680;23.260;2022-10-03T03:34:43;94542.00;;;11.44;100.00
12785;BME280;6456;42.680;23.260;2022-10-03T03:37:20;94546.50;;;11.55;100.00
12785;BME280;6456;42.680;23.260;2022-10-03T03:40:02;94467.06;;;11.04;100.00
12785;BME280;6456;42.680;23.260;2022-10-03T03:42:47;94595.44;;;11.88;100.00
12785;BME280;6456;42.680;23.260;2022-10-03T03:45:40;94597.44;;;11.92;100.00
12785;BME280;6456;42.680;23.260;2022-10-03T03:48:27;94578.09;;;11.80;100.00
12785;BME280;6456;42.680;23.260;2022-10-03T03:51:16;94589.06;;;11.95;100.00
12785;BME280;6456;42.680;23.260;2022-10-03T03:54:12;94576.94;;;11.94;100.00
12785;BME280;6456;42.680;23.260;2022-10-03T03:57:13;94580.38;;;11.95;100.00
12785;BME280;6456;42.680;23.260;2022-10-03T03:59:57;94576.25;;;11.99;100.00
12785;BME280;6456;42.680;23.260;2022-10-03T04:05:30;94560.25;;;11.82;100.00
12785;BME280;6456;42.680;23.260;2022-10-03T04:08:15;94555.28;;;11.74;100.00
12785;BME280;6456;42.680;23.260;2022-10-03T04:10:56;94528.16;;;11.49;100.00
12785;BME280;6456;42.680;23.260;2022-10-03T04:14:02;94477.13;;;11.25;100.00
12785;BME280;6456;42.680;23.260;2022-10-03T04:16:47;94437.53;;;11.02;100.00
12785;BME280;6456;42.680;23.260;2022-10-03T04:19:46;94571.50;;;11.89;100.00
12785;BME280;6456;42.680;23.260;2022-10-03T04:22:37;94540.97;;;11.64;100.00
12785;BME280;6456;42.680;23.260;2022-10-03T04:25:30;94517.25;;;11.45;100.00
12785;BME280;6456;42.680;23.260;2022-10-03T04:28:15;94570.69;;;11.89;100.00
12785;BME280;6456;42.680;23.260;2022-10-03T04:30:58;94568.22;;;11.94;100.00
12785;BME280;6456;42.680;23.260;2022-10-03T04:33:43;94578.66;;;12.00;100.00
12785;BME280;6456;42.680;23.260;2022-10-03T04:36:41;94545.97;;;11.90;100.00
12785;BME280;6456;42.680;23.260;2022-10-03T04:39:21;94504.00;;;11.70;100.00
12785;BME280;6456;42.680;23.260;2022-10-03T04:42:00;94521.19;;;11.73;100.00
12785;BME280;6456;42.680;23.260;2022-10-03T04:44:43;94564.94;;;12.10;100.00
12785;BME280;6456;42.680;23.260;2022-10-03T04:47:19;94555.06;;;12.05;100.00
12785;BME280;6456;42.680;23.260;2022-10-03T04:49:51;94565.06;;;12.15;100.00
12785;BME280;6456;42.680;23.260;2022-10-03T04:52:27;94507.00;;;11.74;100.00
12785;BME280;6456;42.680;23.260;2022-10-03T04:55:06;94501.97;;;11.72;100.00
12785;BME280;6456;42.680;23.260;2022-10-03T04:57:46;94556.00;;;12.11;100.00
12785;BME280;6456;42.680;23.260;2022-10-03T05:00:21;94571.97;;;12.16;100.00
12785;BME280;6456;42.680;23.260;2022-10-03T05:02:56;94501.31;;;11.77;100.00
12785;BME280;6456;42.680;23.260;2022-10-03T05:05:47;94557.31;;;12.20;100.00
12785;BME280;6456;42.680;23.260;2022-10-03T05:08:31;94557.31;;;12.20;100.00
12785;BME280;6456;42.680;23.260;2022-10-03T05:11:13;94549.63;;;12.18;100.00
12785;BME280;6456;42.680;23.260;2022-10-03T05:13:52;94566.72;;;12.28;100.00
12785;BME280;6456;42.680;23.260;2022-10-03T05:16:30;94562.84;;;12.30;100.00
12785;BME280;6456;42.680;23.260;2022-10-03T05:19:18;94559.91;;;12.38;100.00
12785;BME280;6456;42.680;23.260;2022-10-03T05:21:53;94562.66;;;12.43;100.00
12785;BME280;6456;42.680;23.260;2022-10-03T05:24:27;94562.78;;;12.48;100.00
12785;BME280;6456;42.680;23.260;2022-10-03T05:27:02;94562.78;;;12.48;100.00
12785;BME280;6456;42.680;23.260;2022-10-03T05:29:40;94556.84;;;12.53;100.00
12785;BME280;6456;42.680;23.260;2022-10-03T05:32:16;94535.84;;;12.46;100.00
12785;BME280;6456;42.680;23.260;2022-10-03T05:35:21;94536.69;;;12.70;100.00
12785;BME280;6456;42.680;23.260;2022-10-03T05:41:00;94528.47;;;12.90;100.00
12785;BME280;6456;42.680;23.260;2022-10-03T05:43:44;94523.41;;;13.00;100.00
12785;BME280;6456;42.680;23.260;2022-10-03T05:46:21;94534.88;;;13.05;100.00
12785;BME280;6456;42.680;23.260;2022-10-03T05:49:03;94542.34;;;12.97;100.00
12785;BME280;6456;42.680;23.260;2022-10-03T05:51:43;94529.34;;;12.72;100.00
12785;BME280;6456;42.680;23.260;2022-10-03T05:54:44;94520.50;;;12.66;100.00
12785;BME280;6456;42.680;23.260;2022-10-03T05:57:28;94547.28;;;12.81;100.00
12785;BME280;6456;42.680;23.260;2022-10-03T06:00:07;94546.81;;;12.84;100.00
12785;BME280;6456;42.680;23.260;2022-10-03T06:03:00;94553.69;;;12.85;100.00
12785;BME280;6456;42.680;23.260;2022-10-03T06:05:43;94500.63;;;12.52;100.00
12785;BME280;6456;42.680;23.260;2022-10-03T06:08:38;94529.69;;;12.75;100.00
12785;BME280;6456;42.680;23.260;2022-10-03T06:14:19;94568.09;;;13.13;100.00
12785;BME280;6456;42.680;23.260;2022-10-03T06:16:57;94511.91;;;12.82;100.00
12785;BME280;6456;42.680;23.260;2022-10-03T06:19:42;94554.31;;;13.11;100.00
12785;BME280;6456;42.680;23.260;2022-10-03T06:22:43;94577.78;;;13.42;100.00
12785;BME280;6456;42.680;23.260;2022-10-03T06:28:52;94572.81;;;13.57;100.00
12785;BME280;6456;42.680;23.260;2022-10-03T06:32:00;94568.78;;;13.66;100.00
12785;BME280;6456;42.680;23.260;2022-10-03T06:34:53;94557.38;;;13.66;100.00
12785;BME280;6456;42.680;23.260;2022-10-03T06:37:51;94574.63;;;13.68;100.00
12785;BME280;6456;42.680;23.260;2022-10-03T06:43:57;94578.75;;;13.76;100.00
12785;BME280;6456;42.680;23.260;2022-10-03T06:46:43;94576.59;;;13.61;100.00
12785;BME280;6456;42.680;23.260;2022-10-03T06:49:34;94564.44;;;13.60;100.00
12785;BME280;6456;42.680;23.260;2022-10-03T06:52:33;94497.69;;;13.18;100.00
12785;BME280;6456;42.680;23.260;2022-10-03T07:01:16;94590.88;;;13.60;100.00
12785;BME280;6456;42.680;23.260;2022-10-03T07:04:21;94600.28;;;13.56;100.00
12785;BME280;6456;42.680;23.260;2022-10-03T07:07:19;94612.69;;;13.44;100.00
12785;BME280;6456;42.680;23.260;2022-10-03T07:10:24;94619.13;;;13.48;100.00
12785;BME280;6456;42.680;23.260;2022-10-03T07:13:21;94633.84;;;13.44;100.00
12785;BME280;6456;42.680;23.260;2022-10-03T07:16:09;94601.06;;;13.10;100.00
12785;BME280;6456;42.680;23.260;2022-10-03T07:19:02;94654.38;;;13.19;100.00
12785;BME280;6456;42.680;23.260;2022-10-03T07:25:06;94657.44;;;13.04;100.00
12785;BME280;6456;42.680;23.260;2022-10-03T07:27:52;94663.84;;;12.97;100.00
12785;BME280;6456;42.680;23.260;2022-10-03T07:30:24;94687.38;;;12.98;100.00
12785;BME280;6456;42.680;23.260;2022-10-03T07:36:21;94641.44;;;12.88;100.00
12785;BME280;6456;42.680;23.260;2022-10-03T07:39:37;94679.97;;;13.07;100.00
12785;BME280;6456;42.680;23.260;2022-10-03T07:51:26;94694.84;;;13.31;100.00
12785;BME280;6456;42.680;23.260;2022-10-03T07:54:27;94689.34;;;13.32;100.00
12785;BME280;6456;42.680;23.260;2022-10-03T07:57:11;94657.38;;;13.22;100.00
12785;BME280;6456;42.680;23.260;2022-10-03T08:03:22;94669.72;;;13.52;100.00
12785;BME280;6456;42.680;23.260;2022-10-03T08:06:18;94681.00;;;13.70;100.00
12785;BME280;6456;42.680;23.260;2022-10-03T08:09:21;94641.88;;;13.49;100.00
12785;BME280;6456;42.680;23.260;2022-10-03T08:15:09;94695.34;;;13.74;100.00
12785;BME280;6456;42.680;23.260;2022-10-03T08:20:52;94673.19;;;13.75;100.00
12785;BME280;6456;42.680;23.260;2022-10-03T08:23:43;94655.13;;;13.72;100.00
12785;BME280;6456;42.680;23.260;2022-10-03T08:26:24;94649.59;;;13.74;100.00
12785;BME280;6456;42.680;23.260;2022-10-03T08:29:18;94703.84;;;14.11;100.00
12785;BME280;6456;42.680;23.260;2022-10-03T08:44:54;94713.38;;;14.47;100.00
12785;BME280;6456;42.680;23.260;2022-10-03T08:50:30;94704.69;;;14.63;100.00
12785;BME280;6456;42.680;23.260;2022-10-03T08:56:10;94723.72;;;14.88;100.00
12785;BME280;6456;42.680;23.260;2022-10-03T08:59:15;94723.13;;;14.98;100.00
12785;BME280;6456;42.680;23.260;2022-10-03T09:08:26;94716.16;;;15.08;100.00
12785;BME280;6456;42.680;23.260;2022-10-03T09:11:19;94701.97;;;14.86;100.00
12785;BME280;6456;42.680;23.260;2022-10-03T09:14:17;94741.63;;;15.09;100.00
12785;BME280;6456;42.680;23.260;2022-10-03T09:17:15;94737.94;;;15.10;100.00
12785;BME280;6456;42.680;23.260;2022-10-03T09:20:09;94735.66;;;15.02;100.00
12785;BME280;6456;42.680;23.260;2022-10-03T09:22:59;94725.00;;;15.14;100.00
12785;BME280;6456;42.680;23.260;2022-10-03T09:25:53;94737.22;;;15.15;100.00
12785;BME280;6456;42.680;23.260;2022-10-03T09:28:42;94664.69;;;14.76;100.00
12785;BME280;6456;42.680;23.260;2022-10-03T09:31:27;94640.75;;;14.71;100.00
12785;BME280;6456;42.680;23.260;2022-10-03T09:34:17;94717.31;;;15.29;100.00
12785;BME280;6456;42.680;23.260;2022-10-03T09:40:14;94721.03;;;15.45;100.00
12785;BME280;6456;42.680;23.260;2022-10-03T09:43:00;94697.56;;;15.20;100.00
12785;BME280;6456;42.680;23.260;2022-10-03T09:46:02;94737.78;;;15.45;100.00
12785;BME280;6456;42.680;23.260;2022-10-03T09:48:43;94724.88;;;15.37;100.00
12785;BME280;6456;42.680;23.260;2022-10-03T09:51:43;94725.69;;;15.37;100.00
12785;BME280;6456;42.680;23.260;2022-10-03T09:54:29;94741.09;;;15.52;100.00
12785;BME280;6456;42.680;23.260;2022-10-03T10:00:14;94721.03;;;15.45;100.00
12785;BME280;6456;42.680;23.260;2022-10-03T10:06:06;94729.91;;;15.67;98.04
12785;BME280;6456;42.680;23.260;2022-10-03T10:12:10;94723.81;;;15.83;97.32
12785;BME280;6456;42.680;23.260;2022-10-03T10:18:00;94657.59;;;15.55;93.33
12785;BME280;6456;42.680;23.260;2022-10-03T10:23:55;94724.31;;;15.80;93.17
12785;BME280;6456;42.680;23.260;2022-10-03T10:30:02;94721.31;;;15.93;90.10
12785;BME280;6456;42.680;23.260;2022-10-03T10:45:14;94734.34;;;15.94;86.08
12785;BME280;6456;42.680;23.260;2022-10-03T10:48:26;94712.53;;;15.76;85.96
12785;BME280;6456;42.680;23.260;2022-10-03T10:51:26;94726.47;;;15.83;86.68
12785;BME280;6456;42.680;23.260;2022-10-03T10:54:38;94736.25;;;15.99;86.81
12785;BME280;6456;42.680;23.260;2022-10-03T11:00:53;94751.94;;;15.84;86.11
12785;BME280;6456;42.680;23.260;2022-10-03T11:04:00;94699.13;;;15.49;87.61
12785;BME280;6456;42.680;23.260;2022-10-03T11:13:18;94733.94;;;15.69;89.15
12785;BME280;6456;42.680;23.260;2022-10-03T11:16:40;94688.78;;;15.19;89.80
12785;BME280;6456;42.680;23.260;2022-10-03T11:23:06;94737.41;;;15.25;90.51
12785;BME280;6456;42.680;23.260;2022-10-03T11:32:26;94722.34;;;15.14;90.28
12785;BME280;6456;42.680;23.260;2022-10-03T11:35:28;94727.28;;;15.22;91.55
12785;BME280;6456;42.680;23.260;2022-10-03T11:38:04;94731.63;;;15.28;90.71
12785;BME280;6456;42.680;23.260;2022-10-03T11:40:48;94749.56;;;15.37;90.66
12785;BME280;6456;42.680;23.260;2022-10-03T11:43:44;94729.53;;;15.30;90.14
12785;BME280;6456;42.680;23.260;2022-10-03T11:46:22;94724.00;;;15.31;89.88
12785;BME280;6456;42.680;23.260;2022-10-03T11:49:00;94725.34;;;15.34;90.09
12785;BME280;6456;42.680;23.260;2022-10-03T11:51:38;94709.78;;;15.37;90.42
12785;BME280;6456;42.680;23.260;2022-10-03T11:54:19;94698.13;;;15.38;90.40
12785;BME280;6456;42.680;23.260;2022-10-03T11:56:53;94722.59;;;15.57;90.21
12785;BME280;6456;42.680;23.260;2022-10-03T11:59:38;94687.03;;;15.41;88.24
12785;BME280;6456;42.680;23.260;2022-10-03T12:02:15;94713.50;;;15.53;86.17
12785;BME280;6456;42.680;23.260;2022-10-03T12:05:04;94716.00;;;15.43;86.17
12785;BME280;6456;42.680;23.260;2022-10-03T12:07:44;94645.00;;;15.00;86.01
12785;BME280;6456;42.680;23.260;2022-10-03T12:10:36;94724.63;;;15.38;86.32
12785;BME280;6456;42.680;23.260;2022-10-03T12:13:09;94717.66;;;15.32;85.05
12785;BME280;6456;42.680;23.260;2022-10-03T12:15:41;94718.22;;;15.34;84.59
12785;BME280;6456;42.680;23.260;2022-10-03T12:18:14;94726.63;;;15.31;84.14
12785;BME280;6456;42.680;23.260;2022-10-03T12:21:06;94699.13;;;15.21;83.58
12785;BME280;6456;42.680;23.260;2022-10-03T12:23:52;94687.34;;;15.28;84.99
12785;BME280;6456;42.680;23.260;2022-10-03T12:26:29;94663.81;;;15.15;81.09
12785;BME280;6456;42.680;23.260;2022-10-03T12:28:59;94711.03;;;15.63;80.83
12785;BME280;6456;42.680;23.260;2022-10-03T12:31:31;94711.03;;;15.63;74.96
12785;BME280;6456;42.680;23.260;2022-10-03T12:34:13;94699.84;;;15.61;72.77
12785;BME280;6456;42.680;23.260;2022-10-03T12:36:50;94668.13;;;15.50;76.21
12785;BME280;6456;42.680;23.260;2022-10-03T12:39:28;94683.88;;;15.73;78.08
12785;BME280;6456;42.680;23.260;2022-10-03T12:42:14;94708.53;;;15.90;77.51
12785;BME280;6456;42.680;23.260;2022-10-03T12:44:50;94607.13;;;15.50;75.13
12785;BME280;6456;42.680;23.260;2022-10-03T12:47:27;94716.97;;;15.87;72.71
12785;BME280;6456;42.680;23.260;2022-10-03T12:49:59;94713.84;;;15.90;72.96
12785;BME280;6456;42.680;23.260;2022-10-03T12:52:36;94631.06;;;15.55;73.57
12785;BME280;6456;42.680;23.260;2022-10-03T12:55:22;94695.63;;;15.98;73.39
12785;BME280;6456;42.680;23.260;2022-10-03T12:58:02;94697.06;;;16.06;72.96
12785;BME280;6456;42.680;23.260;2022-10-03T13:00:35;94727.50;;;16.15;72.20
12785;BME280;6456;42.680;23.260;2022-10-03T13:03:18;94702.72;;;16.10;67.91
12785;BME280;6456;42.680;23.260;2022-10-03T13:05:57;94718.31;;;16.06;68.55
12785;BME280;6456;42.680;23.260;2022-10-03T13:11:33;94694.50;;;16.11;70.68
12785;BME280;6456;42.680;23.260;2022-10-03T13:14:20;94686.22;;;16.08;70.38
12785;BME280;6456;42.680;23.260;2022-10-03T13:16:56;94646.00;;;15.77;70.21
12785;BME280;6456;42.680;23.260;2022-10-03T13:19:29;94686.47;;;16.06;71.68
12785;BME280;6456;42.680;23.260;2022-10-03T13:22:03;94689.56;;;15.98;71.85
12785;BME280;6456;42.680;23.260;2022-10-03T13:24:39;94683.19;;;15.99;74.33
12785;BME280;6456;42.680;23.260;2022-10-03T13:27:29;94687.13;;;15.96;71.93
12785;BME280;6456;42.680;23.260;2022-10-03T13:30:02;94693.50;;;15.95;74.14
12785;BME280;6456;42.680;23.260;2022-10-03T13:32:32;94617.63;;;15.45;75.64
12785;BME280;6456;42.680;23.260;2022-10-03T13:35:05;94710.28;;;16.01;72.14
12785;BME280;6456;42.680;23.260;2022-10-03T13:38:10;94676.75;;;15.95;70.04
12785;BME280;6456;42.680;23.260;2022-10-03T13:40:43;94710.34;;;16.06;67.15
12785;BME280;6456;42.680;23.260;2022-10-03T13:43:15;94688.41;;;16.11;67.32
12785;BME280;6456;42.680;23.260;2022-10-03T13:45:46;94667.88;;;16.06;66.83
12785;BME280;6456;42.680;23.260;2022-10-03T13:48:18;94674.25;;;16.05;68.14
12785;BME280;6456;42.680;23.260;2022-10-03T13:50:49;94699.81;;;16.11;65.77
12785;BME280;6456;42.680;23.260;2022-10-03T13:53:31;94695.63;;;16.15;66.35
12785;BME280;6456;42.680;23.260;2022-10-03T13:56:06;94688.69;;;16.14;67.83
12785;BME280;6456;42.680;23.260;2022-10-03T13:58:41;94632.41;;;15.74;67.75
12785;BME280;6456;42.680;23.260;2022-10-03T14:01:27;94707.84;;;16.16;64.71
12785;BME280;6456;42.680;23.260;2022-10-03T14:04:26;94682.34;;;16.15;64.56
12785;BME280;6456;42.680;23.260;2022-10-03T14:07:06;94678.63;;;16.16;63.09
12785;BME280;6456;42.680;23.260;2022-10-03T14:09:51;94666.97;;;16.17;64.31
12785;BME280;6456;42.680;23.260;2022-10-03T14:12:31;94706.88;;;16.22;65.29
12785;BME280;6456;42.680;23.260;2022-10-03T14:15:15;94680.50;;;16.16;65.81
12785;BME280;6456;42.680;23.260;2022-10-03T14:17:52;94584.38;;;15.54;65.05
12785;BME280;6456;42.680;23.260;2022-10-03T14:20:25;94721.69;;;16.01;62.24
12785;BME280;6456;42.680;23.260;2022-10-03T14:23:01;94700.66;;;15.95;62.88
12785;BME280;6456;42.680;23.260;2022-10-03T14:25:34;94702.69;;;15.88;62.64
12785;BME280;6456;42.680;23.260;2022-10-03T14:28:11;94700.81;;;15.88;61.98
12785;BME280;6456;42.680;23.260;2022-10-03T14:30:55;94636.69;;;15.58;62.76
12785;BME280;6456;42.680;23.260;2022-10-03T14:33:30;94706.44;;;15.92;62.95
12785;BME280;6456;42.680;23.260;2022-10-03T14:36:06;94697.91;;;15.90;62.46
12785;BME280;6456;42.680;23.260;2022-10-03T14:38:53;94709.00;;;15.87;63.00
12785;BME280;6456;42.680;23.260;2022-10-03T14:41:36;94639.00;;;15.21;63.66
12785;BME280;6456;42.680;23.260;2022-10-03T14:44:08;94701.75;;;15.32;65.60
12785;BME280;6456;42.680;23.260;2022-10-03T14:46:41;94723.88;;;15.55;66.51
12785;BME280;6456;42.680;23.260;2022-10-03T14:49:18;94734.69;;;15.36;67.95
12785;BME280;6456;42.680;23.260;2022-10-03T14:51:49;94705.59;;;14.97;69.72
12785;BME280;6456;42.680;23.260;2022-10-03T14:54:20;94746.53;;;15.17;71.85
12785;BME280;6456;42.680;23.260;2022-10-03T14:56:49;94746.53;;;15.17;73.42
12785;BME280;6456;42.680;23.260;2022-10-03T14:59:20;94747.94;;;15.08;75.06
12785;BME280;6456;42.680;23.260;2022-10-03T15:01:51;94745.44;;;15.02;75.96
12785;BME280;6456;42.680;23.260;2022-10-03T15:04:26;94710.28;;;14.78;77.98
12785;BME280;6456;42.680;23.260;2022-10-03T15:06:55;94677.16;;;14.64;78.89
12785;BME280;6456;42.680;23.260;2022-10-03T15:09:28;94731.66;;;14.88;79.77
12785;BME280;6456;42.680;23.260;2022-10-03T15:12:02;94721.78;;;15.12;79.93
12785;BME280;6456;42.680;23.260;2022-10-03T15:14:33;94718.59;;;15.26;77.91
12785;BME280;6456;42.680;23.260;2022-10-03T15:17:13;94684.22;;;15.15;77.11
12785;BME280;6456;42.680;23.260;2022-10-03T15:19:45;94720.69;;;15.41;76.58
12785;BME280;6456;42.680;23.260;2022-10-03T15:22:23;94736.59;;;15.41;76.92
12785;BME280;6456;42.680;23.260;2022-10-03T15:24:54;94693.66;;;15.11;76.39
12785;BME280;6456;42.680;23.260;2022-10-03T15:27:25;94680.81;;;15.03;75.16
12785;BME280;6456;42.680;23.260;2022-10-03T15:29:55;94713.63;;;15.30;75.48
12785;BME280;6456;42.680;23.260;2022-10-03T15:32:27;94733.56;;;15.32;75.31
12785;BME280;6456;42.680;23.260;2022-10-03T15:34:57;94732.28;;;15.35;75.86
12785;BME280;6456;42.680;23.260;2022-10-03T15:37:29;94722.97;;;15.32;75.31
12785;BME280;6456;42.680;23.260;2022-10-03T15:40:03;94737.72;;;15.28;75.79
12785;BME280;6456;42.680;23.260;2022-10-03T15:42:44;94751.47;;;15.25;74.89
12785;BME280;6456;42.680;23.260;2022-10-03T15:45:17;94694.56;;;14.88;74.68
12785;BME280;6456;42.680;23.260;2022-10-03T15:47:48;94695.81;;;14.69;75.79
12785;BME280;6456;42.680;23.260;2022-10-03T15:50:18;94664.34;;;14.44;76.32
12785;BME280;6456;42.680;23.260;2022-10-03T15:53:11;94665.50;;;14.37;76.34
12785;BME280;6456;42.680;23.260;2022-10-03T15:55:41;94746.56;;;14.77;76.28
12785;BME280;6456;42.680;23.260;2022-10-03T15:58:15;94751.78;;;14.72;76.67
12785;BME280;6456;42.680;23.260;2022-10-03T16:00:47;94693.94;;;14.30;77.51
12785;BME280;6456;42.680;23.260;2022-10-03T16:03:18;94751.00;;;14.60;76.03
12785;BME280;6456;42.680;23.260;2022-10-03T16:05:58;94723.75;;;14.37;74.99
12785;BME280;6456;42.680;23.260;2022-10-03T16:08:28;94708.44;;;14.15;74.98
12785;BME280;6456;42.680;23.260;2022-10-03T16:11:03;94726.16;;;14.03;75.48
12785;BME280;6456;42.680;23.260;2022-10-03T16:13:35;94739.72;;;14.19;75.93
12785;BME280;6456;42.680;23.260;2022-10-03T16:16:16;94764.22;;;14.26;76.72
12785;BME280;6456;42.680;23.260;2022-10-03T16:18:51;94706.63;;;13.81;76.87
12785;BME280;6456;42.680;23.260;2022-10-03T16:21:29;94771.59;;;14.24;76.81
12785;BME280;6456;42.680;23.260;2022-10-03T16:24:00;94779.44;;;14.19;76.44
12785;BME280;6456;42.680;23.260;2022-10-03T16:26:30;94777.47;;;14.14;77.20
12785;BME280;6456;42.680;23.260;2022-10-03T16:29:05;94779.88;;;14.15;77.44
12785;BME280;6456;42.680;23.260;2022-10-03T16:31:39;94783.34;;;14.16;78.22
12785;BME280;6456;42.680;23.260;2022-10-03T16:34:14;94692.22;;;13.54;77.50
12785;BME280;6456;42.680;23.260;2022-10-03T16:36:44;94727.34;;;13.73;77.77
12785;BME280;6456;42.680;23.260;2022-10-03T16:39:18;94787.16;;;14.20;77.32
12785;BME280;6456;42.680;23.260;2022-10-03T16:41:49;94792.31;;;14.27;77.39
12785;BME280;6456;42.680;23.260;2022-10-03T16:44:22;94779.66;;;14.17;77.35
12785;BME280;6456;42.680;23.260;2022-10-03T16:46:52;94799.69;;;14.25;78.23